createdAt,value
2019-03-11T00:04:12.574Z,730.33
2019-03-11T00:10:43.250Z,726.65
2019-03-11T00:17:14.272Z,734.55
2019-03-11T00:23:45.044Z,709.90
2019-03-11T00:27:09.549Z,705.00
2019-03-11T00:33:40.884Z,721.65
2019-03-11T00:37:05.324Z,696.93
2019-03-11T00:43:36.302Z,708.38
2019-03-11T00:50:09.730Z,701.50
2019-03-11T00:56:40.395Z,686.17
2019-03-11T01:03:11.605Z,674.88
2019-03-11T01:09:42.520Z,660.08
2019-03-11T01:16:13.241Z,660.42
2019-03-11T01:22:44.369Z,667.08
2019-03-11T01:26:09.076Z,655.77
2019-03-11T01:32:40.171Z,659.70
2019-03-11T01:36:04.570Z,652.15
2019-03-11T01:42:35.826Z,638.42
2019-03-11T01:45:11.249Z,642.15
2019-03-11T01:51:41.818Z,636.52
2019-03-11T01:58:12.051Z,632.05
2019-03-11T02:04:42.657Z,633.65
2019-03-11T02:11:13.664Z,647.35
2019-03-11T02:17:44.851Z,638.22
2019-03-11T02:21:09.399Z,634.55
2019-03-11T02:27:40.325Z,630.17
2019-03-11T02:31:04.603Z,627.17
2019-03-11T02:37:35.613Z,618.13
2019-03-11T02:44:06.314Z,615.75
2019-03-11T02:50:37.134Z,618.33
2019-03-11T02:57:07.926Z,622.08
2019-03-11T03:03:43.378Z,629.80
2019-03-11T03:07:07.998Z,600.95
2019-03-11T03:13:38.640Z,618.73
2019-03-11T03:17:03.181Z,604.62
2019-03-11T03:23:34.220Z,596.87
2019-03-11T03:26:58.770Z,610.48
2019-03-11T03:33:29.868Z,605.17
2019-03-11T03:40:00.669Z,611.33
2019-03-11T03:46:32.071Z,607.23
2019-03-11T03:49:56.775Z,604.33
2019-03-11T03:56:27.892Z,611.63
2019-03-11T04:02:59.985Z,611.08
2019-03-11T04:09:31.341Z,615.83
2019-03-11T04:12:55.449Z,603.55
2019-03-11T04:19:29.131Z,604.98
2019-03-11T04:22:52.331Z,615.07
2019-03-11T04:29:23.249Z,614.00
2019-03-11T04:35:54.114Z,615.00
2019-03-11T04:42:24.784Z,616.55
2019-03-11T04:48:55.688Z,626.27
2019-03-11T04:55:26.760Z,630.73
2019-03-11T05:01:57.856Z,639.75
2019-03-11T05:08:28.974Z,624.45
2019-03-11T05:11:53.632Z,641.17
2019-03-11T05:18:24.500Z,640.25
2019-03-11T05:21:48.939Z,623.80
2019-03-11T05:28:20.077Z,646.03
2019-03-11T05:34:51.018Z,646.03
2019-03-11T05:38:15.828Z,642.70
2019-03-11T05:44:46.598Z,638.40
2019-03-11T05:51:17.299Z,633.10
2019-03-11T05:57:48.158Z,637.80
2019-03-11T06:04:19.223Z,643.83
2019-03-11T06:10:49.893Z,631.87
2019-03-11T06:17:22.587Z,637.58
2019-03-11T06:23:53.384Z,629.72
2019-03-11T06:27:17.526Z,623.05
2019-03-11T06:33:48.466Z,633.53
2019-03-11T06:37:13.048Z,633.23
2019-03-11T06:43:43.475Z,640.40
2019-03-11T06:50:15.460Z,644.23
2019-03-11T06:52:45.272Z,634.77
2019-03-11T06:59:15.865Z,638.08
2019-03-11T07:05:46.424Z,641.17
2019-03-11T07:09:10.825Z,632.85
2019-03-11T07:15:41.952Z,621.07
2019-03-11T07:22:14.477Z,622.90
2019-03-11T07:25:38.942Z,618.58
2019-03-11T07:32:09.711Z,646.75
2019-03-11T07:38:40.534Z,622.05
2019-03-11T07:41:42.112Z,614.80
2019-03-11T07:49:06.658Z,604.13
2019-03-11T07:55:37.222Z,603.58
2019-03-11T08:02:07.362Z,580.55
2019-03-11T08:08:38.000Z,580.08
2019-03-11T08:15:13.491Z,574.92
2019-03-11T08:18:37.571Z,583.05
2019-03-11T08:25:10.387Z,578.90
2019-03-11T08:31:41.396Z,589.97
2019-03-11T08:35:06.148Z,582.98
2019-03-11T08:41:37.424Z,583.07
2019-03-11T08:48:08.478Z,577.13
2019-03-11T08:51:32.839Z,602.28
2019-03-11T08:58:03.520Z,603.00
2019-03-11T09:04:34.659Z,872.65
2019-03-11T09:11:05.640Z,860.25
2019-03-11T09:17:36.806Z,821.42
2019-03-11T09:24:18.384Z,812.27
2019-03-11T09:30:40.128Z,823.42
2019-03-11T09:37:11.085Z,836.97
2019-03-11T09:40:35.660Z,842.20
2019-03-11T09:47:06.642Z,853.48
2019-03-11T09:50:31.364Z,858.55
2019-03-11T09:57:01.822Z,867.60
2019-03-11T09:59:31.927Z,871.18
2019-03-11T10:06:03.212Z,887.20
2019-03-11T10:12:34.015Z,885.65
2019-03-11T10:19:04.372Z,893.95
2019-03-11T10:22:28.978Z,898.00
2019-03-11T10:28:59.897Z,912.65
2019-03-11T10:35:32.620Z,916.27
2019-03-11T10:38:57.057Z,917.47
2019-03-11T10:45:31.603Z,925.10
2019-03-11T10:48:54.802Z,926.37
2019-03-11T10:55:26.262Z,926.05
2019-03-11T11:01:57.179Z,922.63
2019-03-11T11:08:27.508Z,933.23
2019-03-11T11:11:52.000Z,933.77
2019-03-11T11:18:22.879Z,933.00
2019-03-11T11:24:53.358Z,931.77
2019-03-11T11:28:17.716Z,927.10
2019-03-11T11:34:48.349Z,930.18
2019-03-11T11:38:12.522Z,930.45
2019-03-11T11:44:43.326Z,864.17
2019-03-11T11:47:17.085Z,847.20
2019-03-11T11:53:47.731Z,831.75
2019-03-11T11:59:59.259Z,719.77
2019-03-11T12:02:29.053Z,847.60
2019-03-11T12:08:59.957Z,863.10
2019-03-11T12:15:30.517Z,869.03
2019-03-11T12:22:01.374Z,885.90
2019-03-11T12:28:31.911Z,896.83
2019-03-11T12:31:56.432Z,883.13
2019-03-11T12:38:28.845Z,886.58
2019-03-11T12:41:55.016Z,900.10
2019-03-11T12:48:25.158Z,865.08
2019-03-11T12:54:55.263Z,860.55
2019-03-11T12:58:19.680Z,859.22
2019-03-11T13:04:50.176Z,925.28
2019-03-11T13:08:14.240Z,923.40
2019-03-11T13:14:44.580Z,878.08
2019-03-11T13:21:21.146Z,876.70
2019-03-11T13:24:45.638Z,876.65
2019-03-11T13:31:16.235Z,909.07
2019-03-11T13:37:47.283Z,931.67
2019-03-11T13:44:18.402Z,938.23
2019-03-11T13:47:42.595Z,940.12
2019-03-11T13:54:13.382Z,934.40
2019-03-11T13:57:37.638Z,931.40
2019-03-11T14:04:08.112Z,935.92
2019-03-11T14:06:38.099Z,939.42
2019-03-11T14:13:09.177Z,935.97
2019-03-11T14:19:39.778Z,937.00
2019-03-11T14:26:10.642Z,924.62
2019-03-11T14:29:35.263Z,929.87
2019-03-11T14:36:06.227Z,939.90
2019-03-11T14:42:37.134Z,925.13
2019-03-11T14:46:01.605Z,920.67
2019-03-11T14:52:32.657Z,891.62
2019-03-11T14:55:57.011Z,879.78
2019-03-11T15:02:28.146Z,869.10
2019-03-11T15:08:58.758Z,872.38
2019-03-11T15:15:29.481Z,841.10
2019-03-11T15:18:54.203Z,856.57
2019-03-11T15:25:24.891Z,846.70
2019-03-11T15:31:57.509Z,849.95
2019-03-11T15:35:21.996Z,843.45
2019-03-11T15:41:53.169Z,856.53
2019-03-11T15:45:17.797Z,861.28
2019-03-11T15:51:48.375Z,861.33
2019-03-11T15:58:18.872Z,863.42
2019-03-11T16:01:43.084Z,869.33
2019-03-11T16:08:13.922Z,882.00
2019-03-11T16:10:43.902Z,877.10
2019-03-11T16:17:15.000Z,877.80
2019-03-11T16:23:45.852Z,877.05
2019-03-11T16:30:27.331Z,875.28
2019-03-11T16:33:51.720Z,873.45
2019-03-11T16:40:22.351Z,879.55
2019-03-11T16:43:46.809Z,877.08
2019-03-11T16:50:27.294Z,879.97
2019-03-11T16:56:58.370Z,883.98
2019-03-11T17:00:22.661Z,882.02
2019-03-11T17:06:53.263Z,874.98
2019-03-11T17:13:23.861Z,874.90
2019-03-11T17:19:54.858Z,873.75
2019-03-11T17:23:19.355Z,872.33
2019-03-11T17:29:50.240Z,870.67
2019-03-11T17:33:14.521Z,871.52
2019-03-11T17:39:45.403Z,865.85
2019-03-11T17:46:16.506Z,874.08
2019-03-11T17:49:40.786Z,878.77
2019-03-11T17:56:11.394Z,873.85
2019-03-11T17:59:35.959Z,877.95
2019-03-11T18:06:11.770Z,874.15
2019-03-11T18:09:32.819Z,877.92
2019-03-11T18:16:04.938Z,878.22
2019-03-11T18:19:29.305Z,882.58
2019-03-11T18:26:00.192Z,875.17
2019-03-11T18:32:31.058Z,875.65
2019-03-11T18:39:02.174Z,874.73
2019-03-11T18:45:33.241Z,872.42
2019-03-11T18:48:57.745Z,868.22
2019-03-11T18:55:31.841Z,875.38
2019-03-11T18:58:56.645Z,873.65
2019-03-11T19:05:27.752Z,873.05
2019-03-11T19:11:58.767Z,863.78
2019-03-11T19:15:12.774Z,860.55
2019-03-11T19:17:42.866Z,869.05
2019-03-11T19:24:13.704Z,849.58
2019-03-11T19:30:43.692Z,854.83
2019-03-11T19:37:14.376Z,848.72
2019-03-11T19:40:38.833Z,831.67
2019-03-11T19:47:09.272Z,859.58
2019-03-11T19:50:33.487Z,854.92
2019-03-11T19:57:03.918Z,863.23
2019-03-11T20:00:10.366Z,784.87
2019-03-11T20:06:40.914Z,850.95
2019-03-11T20:13:11.487Z,846.75
2019-03-11T20:15:53.873Z,845.67
2019-03-11T20:18:22.532Z,813.30
2019-03-11T20:24:53.413Z,843.67
2019-03-11T20:31:24.155Z,812.75
2019-03-11T20:37:54.478Z,767.90
2019-03-11T20:41:18.824Z,772.73
2019-03-11T20:47:48.865Z,804.63
2019-03-11T20:51:13.242Z,793.55
2019-03-11T20:57:43.472Z,781.23
2019-03-11T21:01:07.887Z,786.05
2019-03-11T21:07:38.452Z,751.75
2019-03-11T21:11:02.956Z,761.50
2019-03-11T21:17:33.337Z,690.63
2019-03-11T21:24:04.330Z,713.85
2019-03-11T21:30:34.651Z,695.02
2019-03-11T21:37:05.841Z,631.73
2019-03-11T21:43:36.855Z,642.17
2019-03-11T21:47:01.329Z,649.35
2019-03-11T21:53:31.873Z,620.63
2019-03-11T21:56:56.409Z,626.70
2019-03-11T22:03:26.730Z,648.33
2019-03-11T22:06:51.009Z,652.13
2019-03-11T22:13:22.013Z,646.92
2019-03-11T22:16:46.799Z,645.80
2019-03-11T22:19:16.763Z,647.20
2019-03-11T22:25:47.390Z,610.10
2019-03-11T22:32:18.723Z,609.80
2019-03-11T22:38:49.799Z,633.02
2019-03-11T22:42:14.059Z,635.90
2019-03-11T22:48:44.955Z,625.65
2019-03-11T22:52:09.487Z,635.33
2019-03-11T22:58:40.771Z,623.20
2019-03-11T23:02:05.232Z,619.97
2019-03-11T23:08:36.271Z,592.15
2019-03-11T23:12:00.840Z,589.20
2019-03-11T23:18:31.586Z,593.95
2019-03-11T23:25:08.036Z,545.33
2019-03-11T23:31:38.919Z,521.90
2019-03-11T23:38:09.911Z,542.08
2019-03-11T23:44:40.014Z,543.30
2019-03-11T23:48:04.403Z,542.45
2019-03-11T23:54:34.745Z,514.57
2019-03-11T23:57:59.120Z,518.83
